Time;durP1;ratioP1;P1;durP2;ratioP2;P2;SDS_P1;SDS_P2;PMS_P1;PMS_P2;Temp;Humidity;BMP_temperature;BMP_pressure;BME280_temperature;BME280_humidity;BME280_pressure;Samples;Min_cycle;Max_cycle;Signal;HPM_P1;HPM_P2
2023/03/16 00:02:13;;;;;;;10.93;2.70;;;7.50;99.90;;;;;;5037116;28;20092;-63
2023/03/16 00:04:40;;;;;;;10.85;3.05;;;7.50;99.90;;;;;;5036761;28;20049;-63
2023/03/16 00:07:06;;;;;;;10.40;2.95;;;7.60;99.90;;;;;;5037088;28;20045;-64
2023/03/16 00:09:34;;;;;;;12.75;3.22;;;7.60;99.90;;;;;;5036777;28;20045;-63
2023/03/16 00:12:04;;;;;;;10.60;2.50;;;7.60;99.90;;;;;;5030448;28;20053;-63
2023/03/16 00:14:30;;;;;;;10.60;3.03;;;7.60;99.90;;;;;;5025709;28;20101;-63
2023/03/16 00:16:57;;;;;;;7.68;2.78;;;7.60;99.90;;;;;;5035457;28;20059;-63
2023/03/16 00:19:24;;;;;;;8.23;2.60;;;7.60;99.90;;;;;;5034489;28;20037;-63
2023/03/16 00:21:51;;;;;;;8.57;2.67;;;7.60;99.90;;;;;;5036139;28;20140;-61
2023/03/16 00:24:18;;;;;;;9.80;2.80;;;7.60;99.90;;;;;;5055905;28;20051;-63
2023/03/16 00:26:45;;;;;;;7.68;2.25;;;7.60;99.90;;;;;;5056099;28;20044;-63
2023/03/16 00:29:11;;;;;;;7.05;2.60;;;7.60;99.90;;;;;;5055212;28;20118;-63
2023/03/16 00:31:42;;;;;;;9.38;2.67;;;7.70;99.90;;;;;;5056539;28;20044;-63
2023/03/16 00:34:09;;;;;;;9.55;2.90;;;7.70;99.90;;;;;;5054504;28;20045;-64
2023/03/16 00:36:37;;;;;;;6.65;2.45;;;7.70;99.90;;;;;;5054403;28;20041;-64
2023/03/16 00:39:04;;;;;;;5.13;2.35;;;7.70;99.90;;;;;;5056092;28;20166;-63
2023/03/16 00:41:30;;;;;;;5.72;2.58;;;7.80;99.90;;;;;;5055100;28;20065;-63
2023/03/16 00:43:57;;;;;;;7.57;2.90;;;7.80;99.90;;;;;;5055934;28;20068;-63
2023/03/16 00:46:25;;;;;;;5.25;2.40;;;7.80;99.90;;;;;;5056266;28;20443;-62
2023/03/16 00:48:52;;;;;;;8.45;2.83;;;7.80;99.90;;;;;;5056016;28;20041;-61
2023/03/16 00:51:19;;;;;;;6.78;2.55;;;7.80;99.90;;;;;;5056017;28;20376;-61
2023/03/16 00:53:46;;;;;;;8.57;2.70;;;7.80;99.90;;;;;;5054527;28;20045;-62
2023/03/16 00:56:12;;;;;;;8.68;2.70;;;7.90;99.90;;;;;;5055715;28;20044;-62
2023/03/16 00:58:41;;;;;;;7.00;2.83;;;7.90;99.90;;;;;;5054497;28;20049;-62
2023/03/16 01:01:09;;;;;;;8.48;3.00;;;7.90;99.90;;;;;;5055936;28;20044;-62
2023/03/16 01:03:36;;;;;;;9.15;3.05;;;7.90;99.90;;;;;;5055755;28;20037;-62
2023/03/16 01:06:03;;;;;;;4.22;2.50;;;7.90;99.90;;;;;;5053889;28;20494;-62
2023/03/16 01:08:31;;;;;;;7.13;2.58;;;7.90;99.90;;;;;;5054249;28;20041;-63
2023/03/16 01:10:59;;;;;;;6.30;2.58;;;7.90;99.90;;;;;;5055016;28;20099;-63
2023/03/16 01:13:26;;;;;;;6.30;2.40;;;7.90;99.90;;;;;;5055773;28;20052;-62
2023/03/16 01:15:53;;;;;;;8.02;3.60;;;7.90;99.90;;;;;;5054214;28;20041;-62
2023/03/16 01:18:21;;;;;;;5.10;2.72;;;7.90;99.90;;;;;;5053965;28;20057;-62
2023/03/16 01:20:49;;;;;;;6.60;3.10;;;8.00;99.90;;;;;;5053900;28;20376;-62
2023/03/16 01:23:16;;;;;;;6.57;2.65;;;8.00;99.90;;;;;;5054918;28;20041;-62
2023/03/16 01:25:46;;;;;;;8.00;2.78;;;8.00;99.90;;;;;;5055361;28;20098;-63
2023/03/16 01:28:13;;;;;;;5.80;3.00;;;8.00;99.90;;;;;;5054864;28;20033;-62
2023/03/16 01:30:39;;;;;;;5.65;2.75;;;8.00;99.90;;;;;;5053444;28;20075;-62
2023/03/16 01:33:06;;;;;;;6.50;2.70;;;8.00;99.90;;;;;;5054674;28;20052;-62
2023/03/16 01:35:33;;;;;;;6.30;2.90;;;8.00;99.90;;;;;;5054768;28;20085;-62
2023/03/16 01:38:03;;;;;;;8.02;2.78;;;8.00;99.90;;;;;;5053614;28;20055;-62
2023/03/16 01:40:30;;;;;;;11.55;3.35;;;8.10;99.90;;;;;;5036865;28;20057;-62
2023/03/16 01:42:57;;;;;;;7.53;3.10;;;8.00;99.90;;;;;;5053369;28;20407;-62
2023/03/16 01:45:24;;;;;;;7.05;3.10;;;8.00;99.90;;;;;;5053336;28;20062;-62
2023/03/16 01:47:51;;;;;;;5.43;3.15;;;8.10;99.90;;;;;;5053493;28;20044;-62
2023/03/16 01:50:17;;;;;;;8.98;2.90;;;8.00;99.90;;;;;;5053347;28;20041;-62
2023/03/16 01:52:44;;;;;;;7.93;2.80;;;8.10;99.90;;;;;;5054581;28;20127;-63
2023/03/16 01:55:12;;;;;;;9.63;2.85;;;8.10;99.90;;;;;;5054847;28;20415;-62
2023/03/16 01:57:41;;;;;;;4.72;2.70;;;8.10;99.90;;;;;;5053236;28;20116;-62
2023/03/16 02:00:18;;;;;;;6.63;2.50;;;8.10;99.90;;;;;;5054110;28;20056;-62
2023/03/16 02:03:00;;;;;;;6.43;2.47;;;8.10;99.90;;;;;;5054212;28;20075;-62
2023/03/16 02:05:38;;;;;;;8.45;2.95;;;8.10;99.90;;;;;;5053093;28;20072;-62
2023/03/16 02:08:05;;;;;;;7.85;2.70;;;8.10;99.90;;;;;;5053133;28;20094;-62
2023/03/16 02:10:32;;;;;;;6.80;2.70;;;8.20;99.90;;;;;;5052920;28;20124;-62
2023/03/16 02:12:59;;;;;;;7.50;2.95;;;8.20;99.90;;;;;;5052427;28;20527;-62
2023/03/16 02:15:26;;;;;;;9.70;3.05;;;8.20;99.90;;;;;;5052913;28;20037;-62
2023/03/16 02:17:53;;;;;;;6.57;2.95;;;8.20;99.90;;;;;;5054053;28;20058;-62
2023/03/16 02:20:21;;;;;;;9.23;3.10;;;8.20;99.90;;;;;;5052768;28;20048;-62
2023/03/16 02:22:48;;;;;;;5.88;2.85;;;8.30;99.90;;;;;;5054044;28;20475;-62
2023/03/16 02:25:15;;;;;;;6.40;3.50;;;8.30;99.90;;;;;;5054324;28;20041;-62
2023/03/16 02:27:42;;;;;;;7.35;3.10;;;8.30;99.90;;;;;;5053020;28;20098;-62
2023/03/16 02:30:08;;;;;;;10.32;3.38;;;8.30;99.90;;;;;;5052635;28;20033;-62
2023/03/16 02:32:43;;;;;;;9.15;3.78;;;8.30;99.90;;;;;;5052735;28;20522;-63
2023/03/16 02:35:09;;;;;;;9.90;3.10;;;8.30;99.90;;;;;;5054111;28;20131;-63
2023/03/16 02:37:36;;;;;;;8.38;3.90;;;8.40;99.90;;;;;;5052342;28;20071;-63
2023/03/16 02:40:05;;;;;;;10.95;3.75;;;8.40;99.90;;;;;;5053995;28;20068;-62
2023/03/16 02:42:32;;;;;;;7.97;3.42;;;8.40;99.90;;;;;;5053875;28;20419;-62
2023/03/16 02:44:58;;;;;;;10.48;3.47;;;8.40;99.90;;;;;;5052561;28;20045;-62
2023/03/16 02:47:30;;;;;;;11.25;3.60;;;8.40;99.90;;;;;;5052275;28;20136;-62
2023/03/16 02:49:57;;;;;;;13.00;4.10;;;8.40;99.90;;;;;;5052462;28;20045;-62
2023/03/16 02:52:23;;;;;;;11.20;3.50;;;8.50;99.90;;;;;;5052182;28;20044;-62
2023/03/16 02:54:51;;;;;;;14.23;4.32;;;8.50;99.90;;;;;;5053591;28;20044;-62
2023/03/16 02:57:18;;;;;;;10.73;3.47;;;8.50;99.90;;;;;;5053708;28;20048;-62
2023/03/16 02:59:44;;;;;;;12.63;3.80;;;8.60;99.90;;;;;;5052355;28;20041;-62
2023/03/16 03:02:11;;;;;;;12.52;4.40;;;8.60;99.90;;;;;;5053198;28;20075;-62
2023/03/16 03:04:38;;;;;;;14.25;4.07;;;8.60;99.90;;;;;;5052120;28;20056;-62
2023/03/16 03:07:05;;;;;;;12.52;3.80;;;8.60;99.90;;;;;;5053433;28;20128;-62
2023/03/16 03:09:47;;;;;;;16.48;4.50;;;8.70;99.90;;;;;;5052075;28;20041;-62
2023/03/16 03:12:13;;;;;;;13.05;4.18;;;8.60;99.90;;;;;;5052237;28;20040;-62
2023/03/16 03:14:40;;;;;;;11.48;3.90;;;8.70;99.90;;;;;;5053311;28;20083;-62
2023/03/16 03:17:07;;;;;;;12.35;4.05;;;8.70;99.90;;;;;;5051732;28;20064;-62
2023/03/16 03:19:34;;;;;;;18.63;4.20;;;8.70;99.90;;;;;;5051807;28;20061;-63
2023/03/16 03:22:03;;;;;;;12.15;4.55;;;8.80;99.90;;;;;;5051706;28;20061;-63
2023/03/16 03:24:30;;;;;;;15.70;4.85;;;8.80;99.90;;;;;;5051740;28;20049;-63
2023/03/16 03:27:04;;;;;;;14.30;3.90;;;8.80;99.90;;;;;;5052968;28;20048;-63
2023/03/16 03:29:33;;;;;;;12.55;4.43;;;8.80;99.90;;;;;;5051794;28;20041;-63
2023/03/16 03:32:00;;;;;;;13.00;4.07;;;8.80;99.90;;;;;;5051620;28;20392;-63
2023/03/16 03:34:27;;;;;;;17.45;4.03;;;8.90;99.90;;;;;;5055237;28;20099;-63
2023/03/16 03:36:54;;;;;;;11.35;3.72;;;8.90;99.90;;;;;;5058323;28;20395;-63
2023/03/16 03:39:21;;;;;;;14.55;4.05;;;8.90;99.90;;;;;;5059505;28;20048;-63
2023/03/16 03:41:53;;;;;;;13.18;3.38;;;8.90;99.90;;;;;;5058406;28;20379;-63
2023/03/16 03:44:21;;;;;;;12.60;3.40;;;9.00;99.90;;;;;;5058509;28;20041;-63
2023/03/16 03:46:48;;;;;;;13.13;3.38;;;9.00;99.90;;;;;;5058259;28;20041;-63
2023/03/16 03:49:15;;;;;;;12.20;3.22;;;9.00;99.90;;;;;;5058536;28;20044;-63
2023/03/16 03:51:41;;;;;;;15.25;3.15;;;9.00;99.90;;;;;;5059610;28;20559;-63
2023/03/16 03:54:15;;;;;;;12.57;3.42;;;9.10;99.90;;;;;;5058429;28;20047;-63
2023/03/16 03:57:05;;;;;;;12.27;2.80;;;9.10;99.90;;;;;;5061357;28;20060;-63
2023/03/16 03:59:31;;;;;;;15.00;3.53;;;9.10;99.90;;;;;;5059306;28;20036;-63
2023/03/16 04:02:09;;;;;;;10.88;3.38;;;9.10;99.90;;;;;;5058221;28;20061;-63
2023/03/16 04:04:49;;;;;;;14.32;3.20;;;9.10;99.90;;;;;;5059463;28;20041;-63
2023/03/16 04:07:18;;;;;;;10.25;2.90;;;9.10;99.90;;;;;;5059346;28;20420;-63
2023/03/16 04:09:46;;;;;;;10.57;3.35;;;9.10;99.90;;;;;;5057979;28;20048;-63
2023/03/16 04:12:21;;;;;;;10.35;2.60;;;9.20;99.90;;;;;;5058091;28;20128;-63
2023/03/16 04:14:48;;;;;;;10.07;2.90;;;9.20;99.90;;;;;;5057810;28;20122;-63
2023/03/16 04:17:16;;;;;;;8.63;2.90;;;9.20;99.90;;;;;;5057947;28;20127;-63
2023/03/16 04:19:43;;;;;;;9.23;2.55;;;9.20;99.90;;;;;;5058031;28;20098;-63
2023/03/16 04:22:13;;;;;;;11.38;2.50;;;9.20;99.90;;;;;;5057964;28;20057;-62
2023/03/16 04:24:42;;;;;;;9.73;2.50;;;9.20;99.90;;;;;;5058162;28;20045;-63
2023/03/16 04:27:10;;;;;;;7.88;2.55;;;9.30;99.90;;;;;;5057742;28;20140;-62
2023/03/16 04:29:38;;;;;;;10.98;2.33;;;9.20;99.90;;;;;;5057820;28;20484;-62
2023/03/16 04:32:05;;;;;;;7.35;2.33;;;9.30;99.90;;;;;;5057627;28;20504;-62
2023/03/16 04:34:33;;;;;;;7.68;2.25;;;9.30;99.90;;;;;;5058962;28;20481;-63
2023/03/16 04:37:03;;;;;;;12.05;2.45;;;9.30;99.90;;;;;;5057934;28;20087;-62
2023/03/16 04:39:32;;;;;;;8.73;2.80;;;9.30;99.90;;;;;;5057699;28;20525;-62
2023/03/16 04:42:00;;;;;;;8.55;2.35;;;9.30;99.90;;;;;;5058929;28;20033;-62
2023/03/16 04:44:27;;;;;;;8.70;2.50;;;9.30;99.90;;;;;;5057874;28;20041;-62
2023/03/16 04:46:54;;;;;;;10.00;2.33;;;9.40;99.90;;;;;;5053448;28;20353;-62
2023/03/16 04:49:24;;;;;;;8.05;2.08;;;9.40;99.90;;;;;;5046432;28;20488;-62
2023/03/16 04:51:51;;;;;;;8.45;2.38;;;9.40;99.90;;;;;;5036076;28;20056;-63
2023/03/16 04:54:19;;;;;;;9.82;2.72;;;9.40;99.90;;;;;;5034489;28;20473;-62
2023/03/16 04:56:47;;;;;;;8.27;2.60;;;9.40;99.90;;;;;;5034439;28;20133;-63
2023/03/16 04:59:30;;;;;;;9.68;2.30;;;9.40;99.90;;;;;;5034323;28;20049;-63
2023/03/16 05:02:08;;;;;;;8.45;2.15;;;9.40;99.90;;;;;;5034550;28;20053;-62
2023/03/16 05:04:36;;;;;;;8.50;2.58;;;9.50;99.90;;;;;;5034044;28;20052;-63
2023/03/16 05:07:03;;;;;;;8.05;2.30;;;9.50;99.90;;;;;;5034313;28;20481;-63
2023/03/16 05:09:34;;;;;;;6.30;2.50;;;9.40;99.90;;;;;;5033983;28;20073;-63
2023/03/16 05:12:01;;;;;;;7.60;2.30;;;9.40;99.90;;;;;;5034353;28;20045;-63
2023/03/16 05:14:29;;;;;;;5.95;2.25;;;9.40;99.90;;;;;;5034271;28;20129;-63
2023/03/16 05:17:09;;;;;;;7.03;2.03;;;9.50;99.90;;;;;;5034338;28;20072;-63
2023/03/16 05:19:36;;;;;;;6.70;1.70;;;9.50;99.90;;;;;;5034335;28;20056;-63
2023/03/16 05:22:03;;;;;;;7.43;1.65;;;9.40;99.90;;;;;;5033915;28;20103;-63
2023/03/16 05:24:30;;;;;;;8.10;1.48;;;9.40;99.90;;;;;;5033743;28;20049;-63
2023/03/16 05:26:56;;;;;;;5.30;1.63;;;9.40;99.90;;;;;;5033716;28;20053;-63
2023/03/16 05:29:25;;;;;;;4.95;1.33;;;9.40;99.90;;;;;;5033711;28;20079;-63
2023/03/16 05:31:52;;;;;;;6.32;1.60;;;9.30;99.90;;;;;;5033764;28;20128;-62
2023/03/16 05:34:22;;;;;;;9.32;2.63;;;9.30;99.90;;;;;;5033714;28;20049;-63
2023/03/16 05:36:50;;;;;;;6.35;2.15;;;9.30;99.90;;;;;;5033651;28;20041;-63
2023/03/16 05:39:19;;;;;;;6.10;1.95;;;9.30;99.90;;;;;;5033724;28;20038;-63
2023/03/16 05:41:47;;;;;;;7.15;2.08;;;9.30;99.90;;;;;;5033613;28;20128;-63
2023/03/16 05:44:28;;;;;;;7.95;2.38;;;9.30;99.90;;;;;;5033401;28;20046;-63
2023/03/16 05:47:17;;;;;;;7.70;2.15;;;9.30;99.90;;;;;;5034837;28;20187;-63
2023/03/16 05:49:49;;;;;;;8.23;2.35;;;9.30;99.90;;;;;;5033191;28;20103;-62
2023/03/16 05:52:38;;;;;;;7.55;2.40;;;9.30;99.90;;;;;;5033388;28;20144;-62
2023/03/16 05:55:13;;;;;;;11.15;2.63;;;9.40;99.90;;;;;;5033099;28;20045;-62
2023/03/16 05:57:41;;;;;;;7.40;2.72;;;9.40;99.90;;;;;;5032768;28;20053;-62
2023/03/16 06:00:15;;;;;;;12.50;2.70;;;9.40;99.90;;;;;;5033139;28;20041;-62
2023/03/16 06:02:50;;;;;;;7.97;2.50;;;9.40;99.90;;;;;;5033025;28;20045;-62
2023/03/16 06:05:17;;;;;;;6.95;2.20;;;9.40;99.90;;;;;;5032906;28;20037;-62
2023/03/16 06:07:45;;;;;;;9.00;3.03;;;9.40;99.90;;;;;;5032956;28;20048;-62
2023/03/16 06:10:13;;;;;;;7.78;2.10;;;9.40;99.90;;;;;;5032683;28;20543;-62
2023/03/16 06:12:40;;;;;;;10.38;2.60;;;9.40;99.90;;;;;;5033044;28;20449;-63
2023/03/16 06:15:07;;;;;;;7.45;2.72;;;9.40;99.90;;;;;;5032684;28;20554;-62
2023/03/16 06:17:34;;;;;;;10.05;2.72;;;9.40;99.90;;;;;;5032751;28;20132;-63
2023/03/16 06:20:01;;;;;;;10.00;2.53;;;9.40;99.90;;;;;;5032512;28;20111;-63
2023/03/16 06:22:29;;;;;;;6.70;2.22;;;9.40;99.90;;;;;;5032693;28;20042;-62
2023/03/16 06:24:56;;;;;;;7.78;2.10;;;9.40;99.90;;;;;;5032681;28;20046;-62
2023/03/16 06:27:25;;;;;;;12.43;2.88;;;9.40;99.90;;;;;;5032909;28;20064;-63
2023/03/16 06:30:07;;;;;;;8.20;2.33;;;9.50;99.90;;;;;;5032860;28;20052;-64
2023/03/16 06:32:36;;;;;;;7.70;2.63;;;9.50;99.90;;;;;;5032550;28;20055;-63
2023/03/16 06:35:03;;;;;;;7.95;2.88;;;9.50;99.90;;;;;;5034023;28;20057;-61
2023/03/16 06:37:31;;;;;;;8.35;2.25;;;9.40;99.90;;;;;;5032830;28;20439;-62
2023/03/16 06:40:02;;;;;;;6.95;2.35;;;9.40;99.90;;;;;;5032602;28;20488;-62
2023/03/16 06:42:29;;;;;;;8.68;2.33;;;9.40;99.90;;;;;;5033566;28;20099;-62
2023/03/16 06:44:57;;;;;;;8.32;1.83;;;9.50;99.90;;;;;;5032589;28;20555;-62
2023/03/16 06:47:23;;;;;;;13.18;2.15;;;9.40;99.90;;;;;;5032830;28;20045;-62
2023/03/16 06:49:53;;;;;;;9.07;2.38;;;9.50;99.90;;;;;;5033877;28;20061;-62
2023/03/16 06:52:23;;;;;;;7.38;2.17;;;9.50;99.90;;;;;;5032782;28;20571;-62
2023/03/16 06:54:49;;;;;;;9.98;2.10;;;9.50;99.90;;;;;;5032552;28;20042;-63
2023/03/16 06:57:18;;;;;;;9.23;2.22;;;9.50;99.90;;;;;;5016169;28;20045;-62
2023/03/16 06:59:45;;;;;;;7.75;2.20;;;9.50;99.90;;;;;;5033768;28;20046;-62
2023/03/16 07:02:13;;;;;;;9.30;1.88;;;9.60;99.90;;;;;;5033636;28;20051;-63
2023/03/16 07:04:40;;;;;;;6.90;1.77;;;9.60;99.90;;;;;;5031739;28;20067;-62
2023/03/16 07:07:07;;;;;;;7.20;1.70;;;9.60;99.90;;;;;;5032351;28;20499;-62
2023/03/16 07:09:34;;;;;;;9.20;1.98;;;9.60;99.90;;;;;;5032826;28;20120;-62
2023/03/16 07:12:06;;;;;;;7.25;1.85;;;9.60;99.90;;;;;;5032188;28;20104;-62
2023/03/16 07:14:33;;;;;;;10.60;2.25;;;9.60;99.90;;;;;;5033413;28;20084;-62
2023/03/16 07:17:00;;;;;;;9.15;1.60;;;9.70;99.90;;;;;;5031991;28;20389;-62
2023/03/16 07:19:28;;;;;;;7.75;1.52;;;9.70;99.90;;;;;;5031709;28;20033;-62
2023/03/16 07:21:59;;;;;;;8.13;1.67;;;9.70;99.90;;;;;;5031729;28;20141;-63
2023/03/16 07:24:27;;;;;;;7.28;1.50;;;9.70;99.90;;;;;;5031830;28;20055;-62
2023/03/16 07:26:54;;;;;;;7.07;2.03;;;9.70;99.90;;;;;;5032155;28;20103;-62
2023/03/16 07:29:26;;;;;;;8.75;1.80;;;9.70;99.90;;;;;;5031666;28;20076;-62
2023/03/16 07:31:54;;;;;;;5.40;1.40;;;9.80;99.90;;;;;;5031587;28;20046;-62
2023/03/16 07:34:27;;;;;;;5.28;1.35;;;9.80;99.90;;;;;;5031451;28;20049;-63
2023/03/16 07:36:56;;;;;;;5.03;1.30;;;9.80;99.90;;;;;;5031665;28;20073;-63
2023/03/16 07:39:27;;;;;;;5.47;1.80;;;9.80;99.90;;;;;;5031656;28;20473;-63
2023/03/16 07:42:01;;;;;;;6.18;1.40;;;9.80;99.90;;;;;;5031708;28;20049;-63
2023/03/16 07:44:48;;;;;;;5.82;1.38;;;9.80;99.90;;;;;;5031580;28;20045;-63
2023/03/16 07:47:17;;;;;;;3.33;1.10;;;9.80;99.90;;;;;;5031971;28;20100;-63
2023/03/16 07:49:45;;;;;;;4.88;1.90;;;9.80;99.90;;;;;;5028258;28;20061;-63
2023/03/16 07:52:12;;;;;;;6.95;1.10;;;9.80;99.90;;;;;;5020430;28;20491;-63
2023/03/16 07:54:40;;;;;;;4.75;1.38;;;9.80;99.90;;;;;;5031407;28;20044;-63
2023/03/16 07:57:08;;;;;;;5.28;1.20;;;9.80;99.90;;;;;;5019092;28;20045;-62
2023/03/16 07:59:38;;;;;;;4.00;1.00;;;9.90;99.90;;;;;;5011982;28;20493;-63
2023/03/16 08:02:06;;;;;;;5.50;1.27;;;9.90;99.90;;;;;;4995698;28;20050;-63
2023/03/16 08:04:33;;;;;;;5.63;1.20;;;9.90;99.90;;;;;;5011775;28;20405;-63
2023/03/16 08:07:01;;;;;;;4.03;1.00;;;10.00;99.90;;;;;;5011930;28;20053;-62
2023/03/16 08:09:42;;;;;;;4.72;1.35;;;10.00;99.90;;;;;;5027004;28;20497;-63
2023/03/16 08:12:13;;;;;;;4.78;1.17;;;10.00;99.90;;;;;;5028636;28;20045;-62
2023/03/16 08:14:39;;;;;;;9.43;5.43;;;10.00;99.90;;;;;;5030328;28;20487;-62
2023/03/16 08:17:14;;;;;;;5.45;2.90;;;10.00;99.90;;;;;;5030410;28;20029;-63
2023/03/16 08:19:43;;;;;;;5.82;1.40;;;10.00;99.90;;;;;;5028975;28;20042;-64
2023/03/16 08:22:10;;;;;;;2.60;1.10;;;10.00;99.90;;;;;;5033807;28;20049;-63
2023/03/16 08:24:41;;;;;;;2.60;0.95;;;10.10;99.90;;;;;;5033989;28;20049;-63
2023/03/16 08:27:10;;;;;;;4.45;1.30;;;10.00;99.90;;;;;;5033791;28;20138;-62
2023/03/16 08:29:40;;;;;;;9.35;1.63;;;10.00;99.90;;;;;;5033908;28;20037;-62
2023/03/16 08:32:11;;;;;;;4.18;1.27;;;10.00;99.90;;;;;;5034083;28;20044;-62
2023/03/16 08:34:41;;;;;;;9.13;1.73;;;10.00;99.90;;;;;;5033894;28;20052;-63
2023/03/16 08:37:09;;;;;;;5.03;1.35;;;10.00;99.90;;;;;;5033647;28;20037;-63
2023/03/16 08:39:35;;;;;;;16.58;13.52;;;10.10;99.90;;;;;;5035045;28;20492;-63
2023/03/16 08:42:07;;;;;;;5.82;1.33;;;10.10;99.90;;;;;;5048021;28;20068;-63
2023/03/16 08:44:40;;;;;;;4.85;1.52;;;10.10;99.90;;;;;;5033315;28;20063;-64
2023/03/16 08:47:07;;;;;;;6.35;1.40;;;10.10;99.90;;;;;;5033376;28;20045;-62
2023/03/16 08:49:35;;;;;;;8.05;1.70;;;10.20;99.90;;;;;;5033633;28;20410;-62
2023/03/16 08:52:09;;;;;;;8.98;2.45;;;10.20;99.90;;;;;;5031456;28;20049;-61
2023/03/16 08:54:36;;;;;;;8.38;1.70;;;10.20;99.90;;;;;;5030382;28;20042;-62
2023/03/16 08:57:03;;;;;;;4.95;1.60;;;10.30;99.90;;;;;;5032037;28;20133;-62
2023/03/16 08:59:30;;;;;;;4.80;1.40;;;10.30;99.90;;;;;;5033909;28;20041;-62
2023/03/16 09:01:56;;;;;;;6.28;1.33;;;10.30;99.90;;;;;;5033990;28;20110;-62
2023/03/16 09:04:24;;;;;;;5.43;1.58;;;10.40;99.90;;;;;;5033510;28;20452;-62
2023/03/16 09:06:52;;;;;;;6.28;1.25;;;10.40;99.90;;;;;;5034163;28;20048;-62
2023/03/16 09:09:34;;;;;;;7.85;1.63;;;10.50;99.90;;;;;;5030590;28;20103;-63
2023/03/16 09:12:01;;;;;;;7.78;1.50;;;10.50;99.90;;;;;;5033735;28;20096;-62
2023/03/16 09:14:27;;;;;;;11.35;1.85;;;10.50;99.90;;;;;;5027623;28;20046;-62
2023/03/16 09:16:55;;;;;;;7.55;1.70;;;10.60;99.90;;;;;;5033178;28;20387;-62
2023/03/16 09:19:22;;;;;;;8.13;2.00;;;10.60;99.90;;;;;;5033796;28;20037;-62
2023/03/16 09:21:49;;;;;;;9.35;1.70;;;10.60;99.90;;;;;;5031482;28;20053;-62
2023/03/16 09:24:16;;;;;;;7.25;1.67;;;10.70;99.90;;;;;;5033374;28;20511;-62
2023/03/16 09:26:43;;;;;;;11.10;1.90;;;10.70;99.90;;;;;;5033457;28;20033;-62
2023/03/16 09:29:09;;;;;;;7.85;1.77;;;10.80;99.90;;;;;;5032193;28;20041;-62
2023/03/16 09:31:37;;;;;;;9.85;1.75;;;10.80;99.90;;;;;;5032756;28;20061;-62
2023/03/16 09:34:04;;;;;;;6.53;1.70;;;10.90;99.90;;;;;;5033372;28;20033;-62
2023/03/16 09:36:32;;;;;;;6.90;1.73;;;11.00;99.90;;;;;;5033189;28;20077;-62
2023/03/16 09:38:59;;;;;;;9.40;2.28;;;11.10;99.90;;;;;;5033082;28;20037;-62
2023/03/16 09:41:26;;;;;;;8.10;2.00;;;11.20;99.90;;;;;;5033382;28;20046;-64
2023/03/16 09:43:52;;;;;;;11.27;2.55;;;11.30;99.90;;;;;;5033601;28;20042;-63
2023/03/16 09:46:19;;;;;;;14.02;2.50;;;11.40;99.90;;;;;;5031632;28;20088;-63
2023/03/16 09:48:46;;;;;;;10.93;2.08;;;11.40;99.90;;;;;;5032780;28;20053;-62
2023/03/16 09:51:13;;;;;;;11.68;2.10;;;11.40;99.90;;;;;;5032784;28;20068;-63
2023/03/16 09:53:40;;;;;;;8.85;2.00;;;11.40;99.90;;;;;;5032965;28;20033;-63
2023/03/16 09:56:08;;;;;;;10.98;2.17;;;11.40;99.90;;;;;;5029862;28;20037;-63
2023/03/16 09:58:35;;;;;;;10.32;2.30;;;11.50;99.90;;;;;;5032801;28;20041;-63
2023/03/16 10:01:03;;;;;;;12.40;3.08;;;11.50;99.90;;;;;;5031575;28;20045;-63
2023/03/16 10:03:30;;;;;;;12.18;4.30;;;11.60;99.90;;;;;;5032864;28;20393;-63
2023/03/16 10:05:57;;;;;;;11.70;2.22;;;11.60;99.90;;;;;;5032356;28;20033;-63
2023/03/16 10:08:24;;;;;;;10.98;2.05;;;11.60;99.90;;;;;;5031669;28;20061;-63
2023/03/16 10:10:50;;;;;;;12.52;2.50;;;11.80;99.90;;;;;;5032687;28;20033;-63
2023/03/16 10:13:17;;;;;;;10.50;2.33;;;12.00;99.90;;;;;;5032624;28;20060;-63
2023/03/16 10:15:44;;;;;;;15.00;2.55;;;12.10;99.90;;;;;;5032527;28;20040;-63
2023/03/16 10:18:11;;;;;;;11.90;1.92;;;12.20;99.90;;;;;;5032829;28;20389;-63
2023/03/16 10:20:40;;;;;;;11.25;2.20;;;12.40;99.90;;;;;;5032591;28;20069;-63
2023/03/16 10:23:08;;;;;;;11.88;3.45;;;12.50;99.90;;;;;;5032349;28;20046;-63
2023/03/16 10:25:34;;;;;;;13.35;2.67;;;12.50;99.90;;;;;;5032498;28;20076;-64
2023/03/16 10:28:01;;;;;;;21.30;3.30;;;12.50;99.90;;;;;;5030983;28;20045;-63
2023/03/16 10:30:28;;;;;;;12.18;2.30;;;12.60;99.90;;;;;;5032386;28;20041;-63
2023/03/16 10:32:56;;;;;;;9.02;2.22;;;12.60;99.90;;;;;;5029985;28;20033;-63
2023/03/16 10:35:23;;;;;;;11.93;2.45;;;12.70;99.90;;;;;;5031008;28;20037;-63
2023/03/16 10:37:51;;;;;;;9.40;2.15;;;12.70;99.90;;;;;;5031809;28;20037;-62
2023/03/16 10:40:19;;;;;;;7.45;1.70;;;12.80;99.90;;;;;;5030991;28;20037;-63
2023/03/16 10:42:45;;;;;;;19.88;2.92;;;12.90;99.90;;;;;;5031380;28;20139;-63
2023/03/16 10:45:12;;;;;;;9.20;2.45;;;13.00;99.90;;;;;;5030195;28;20044;-63
2023/03/16 10:47:39;;;;;;;7.80;2.00;;;13.10;99.90;;;;;;5032603;28;20042;-63
2023/03/16 10:50:06;;;;;;;112.03;7.72;;;13.20;99.90;;;;;;5030874;28;20061;-63
2023/03/16 10:52:33;;;;;;;8.75;1.70;;;13.20;99.90;;;;;;5031865;28;20476;-63
2023/03/16 10:55:00;;;;;;;7.47;1.60;;;13.30;99.90;;;;;;5031012;28;20349;-62
2023/03/16 10:57:26;;;;;;;8.80;1.95;;;13.40;99.90;;;;;;5031924;28;20136;-63
2023/03/16 10:59:53;;;;;;;7.03;1.67;;;13.50;99.90;;;;;;5031858;28;20489;-62
2023/03/16 11:02:22;;;;;;;7.07;1.60;;;13.60;99.90;;;;;;5031922;28;20044;-63
2023/03/16 11:04:49;;;;;;;9.10;1.70;;;13.80;99.90;;;;;;5031818;28;20044;-63
2023/03/16 11:07:16;;;;;;;7.95;1.88;;;13.70;99.90;;;;;;5030447;28;20106;-62
2023/03/16 11:09:43;;;;;;;7.68;1.73;;;13.70;99.90;;;;;;5031542;28;20041;-63
2023/03/16 11:12:10;;;;;;;6.20;1.73;;;13.70;99.90;;;;;;5031499;28;20112;-63
2023/03/16 11:14:37;;;;;;;9.98;1.83;;;13.70;99.90;;;;;;5030153;28;20033;-64
2023/03/16 11:17:04;;;;;;;6.00;1.73;;;13.70;99.90;;;;;;5031567;28;20037;-64
2023/03/16 11:19:31;;;;;;;6.47;1.50;;;13.80;99.90;;;;;;5030359;28;20157;-64
2023/03/16 11:21:58;;;;;;;7.43;1.90;;;13.80;99.90;;;;;;5031343;28;20088;-64
2023/03/16 11:24:25;;;;;;;11.20;2.47;;;13.70;99.90;;;;;;5031583;28;20104;-64
2023/03/16 11:26:53;;;;;;;8.15;1.85;;;13.70;99.90;;;;;;5031404;28;20047;-63
2023/03/16 11:29:20;;;;;;;8.68;2.10;;;13.70;99.90;;;;;;5031261;28;20041;-64
2023/03/16 11:31:48;;;;;;;8.90;1.67;;;13.80;99.90;;;;;;5031657;28;20053;-62
2023/03/16 11:34:15;;;;;;;7.78;1.50;;;13.80;99.90;;;;;;5029618;28;20144;-63
2023/03/16 11:36:42;;;;;;;6.50;1.60;;;13.70;99.90;;;;;;5031686;28;20505;-63
2023/03/16 11:39:08;;;;;;;7.28;1.75;;;13.70;99.90;;;;;;5031601;28;20077;-63
2023/03/16 11:41:36;;;;;;;7.60;1.95;;;13.70;99.90;;;;;;5031573;28;20396;-62
2023/03/16 11:44:03;;;;;;;10.13;1.75;;;13.70;99.90;;;;;;5031626;28;20041;-63
2023/03/16 11:46:30;;;;;;;8.50;2.03;;;13.70;99.90;;;;;;5031461;28;20393;-63
2023/03/16 11:48:58;;;;;;;5.53;1.38;;;13.80;99.90;;;;;;5031537;28;20052;-63
2023/03/16 11:51:26;;;;;;;9.98;2.20;;;13.80;99.90;;;;;;5031342;28;20033;-63
2023/03/16 11:53:53;;;;;;;9.70;4.45;;;13.80;99.90;;;;;;5031422;28;20041;-62
2023/03/16 11:56:20;;;;;;;6.95;1.83;;;13.90;99.90;;;;;;5034908;28;20121;-62
2023/03/16 11:58:47;;;;;;;11.73;1.95;;;14.00;99.90;;;;;;5033592;28;20056;-63
2023/03/16 12:01:14;;;;;;;23.73;2.63;;;14.00;99.90;;;;;;5035340;28;20041;-63
2023/03/16 12:03:40;;;;;;;10.45;2.42;;;14.00;99.90;;;;;;5034031;28;20125;-63
2023/03/16 12:06:07;;;;;;;10.73;2.15;;;14.00;99.90;;;;;;5035532;28;20120;-63
2023/03/16 12:08:48;;;;;;;13.20;2.22;;;14.00;99.90;;;;;;5032042;28;20488;-63
2023/03/16 12:11:15;;;;;;;8.57;1.88;;;13.90;99.90;;;;;;5035231;28;20116;-63
2023/03/16 12:13:43;;;;;;;7.10;2.00;;;13.80;99.90;;;;;;5034937;28;20036;-63
2023/03/16 12:16:10;;;;;;;11.10;1.95;;;13.80;99.90;;;;;;5034976;28;20037;-63
2023/03/16 12:18:37;;;;;;;9.50;2.10;;;13.90;99.90;;;;;;5035040;28;20099;-64
2023/03/16 12:21:04;;;;;;;8.00;1.88;;;13.90;99.90;;;;;;5034601;28;20041;-64
2023/03/16 12:23:31;;;;;;;7.28;1.80;;;13.90;99.90;;;;;;5034831;28;20527;-64
2023/03/16 12:26:02;;;;;;;8.88;1.98;;;13.80;99.90;;;;;;5035110;28;20116;-64
2023/03/16 12:28:30;;;;;;;11.30;3.88;;;13.80;99.90;;;;;;5034772;28;20542;-65
2023/03/16 12:30:58;;;;;;;10.10;2.30;;;13.70;99.90;;;;;;5034865;28;20041;-64
2023/03/16 12:33:25;;;;;;;11.18;2.00;;;13.80;99.90;;;;;;5030955;28;20026;-63
2023/03/16 12:35:52;;;;;;;8.65;1.80;;;13.70;99.90;;;;;;5034899;28;20443;-63
2023/03/16 12:38:19;;;;;;;5.22;1.50;;;13.70;99.90;;;;;;5034758;28;20033;-63
2023/03/16 12:40:46;;;;;;;6.82;2.40;;;13.70;99.90;;;;;;5034424;28;20099;-62
2023/03/16 12:43:13;;;;;;;8.27;1.85;;;13.80;99.90;;;;;;5034539;28;20041;-62
2023/03/16 12:45:40;;;;;;;234.70;22.25;;;13.90;99.90;;;;;;5032808;28;20151;-63
2023/03/16 12:48:07;;;;;;;165.30;18.45;;;14.00;99.90;;;;;;5034147;28;20444;-63
2023/03/16 12:50:34;;;;;;;12.45;3.10;;;14.00;99.90;;;;;;5034151;28;20120;-62
2023/03/16 12:53:01;;;;;;;21.77;4.85;;;14.10;99.90;;;;;;5034263;28;20432;-62
2023/03/16 12:55:28;;;;;;;15.43;3.38;;;14.20;99.90;;;;;;5034383;28;20044;-63
2023/03/16 12:57:55;;;;;;;11.77;2.38;;;14.30;99.90;;;;;;5034061;28;20037;-62